Time;durP1;ratioP1;P1;durP2;ratioP2;P2;SDS_P1;SDS_P2;PMS_P1;PMS_P2;Temp;Humidity;BMP_temperature;BMP_pressure;BME280_temperature;BME280_humidity;BME280_pressure;Samples;Min_cycle;Max_cycle;Signal;HPM_P1;HPM_P2
2022/03/04 00:01:26;;;;;;;;;;;3.30;1.00;;;;;;10512217;27;83807;-53
2022/03/04 00:06:26;;;;;;;;;;;3.10;1.00;;;;;;10516106;27;83318;-47
2022/03/04 00:11:27;;;;;;;;;;;3.10;1.00;;;;;;10505173;27;86262;-49
2022/03/04 00:16:28;;;;;;;;;;;3.10;1.00;;;;;;10522908;27;84103;-48
2022/03/04 00:21:28;;;;;;;;;;;3.00;1.00;;;;;;10517371;27;83921;-51
2022/03/04 00:26:29;;;;;;;;;;;2.80;1.00;;;;;;10525736;27;84161;-53
2022/03/04 00:31:30;;;;;;;;;;;2.70;1.00;;;;;;10532674;27;83271;-49
2022/03/04 00:36:31;;;;;;;;;;;2.60;1.00;;;;;;10524993;27;84167;-48
2022/03/04 00:41:32;;;;;;;;;;;2.50;1.00;;;;;;10535020;27;84088;-50
2022/03/04 00:46:33;;;;;;;;;;;2.50;1.00;;;;;;10534809;27;84048;-48
2022/03/04 00:51:33;;;;;;;;;;;2.40;1.00;;;;;;10523822;27;84164;-47
2022/03/04 00:56:34;;;;;;;;;;;2.30;1.00;;;;;;10492105;22;83908;-47
2022/03/04 01:01:35;;;;;;;;;;;2.30;1.00;;;;;;10431777;28;83839;-47
2022/03/04 01:06:35;;;;;;;;;;;2.10;1.00;;;;;;10436561;28;84060;-46
2022/03/04 01:11:37;;;;;;;;;;;2.10;1.00;;;;;;10438099;28;83856;-46
2022/03/04 01:16:37;;;;;;;;;;;2.10;1.00;;;;;;10436359;28;83900;-44
2022/03/04 01:21:38;;;;;;;;;;;2.10;1.00;;;;;;10429768;28;83691;-46
2022/03/04 01:26:39;;;;;;;;;;;2.00;1.00;;;;;;10428980;28;84006;-45
2022/03/04 01:31:39;;;;;;;;;;;1.90;1.00;;;;;;10432073;28;83663;-45
2022/03/04 01:36:40;;;;;;;;;;;1.80;2.70;;;;;;10428316;28;83640;-45
2022/03/04 01:41:40;;;;;;;;;;;1.80;4.00;;;;;;10433194;28;86266;-46
2022/03/04 01:46:41;;;;;;;;;;;1.70;15.70;;;;;;10452548;27;84268;-48
2022/03/04 01:51:41;;;;;;;;;;;1.60;16.00;;;;;;10453565;28;83631;-45
2022/03/04 01:56:42;;;;;;;;;;;1.60;26.40;;;;;;10452308;28;84080;-47
2022/03/04 02:01:43;;;;;;;;;;;1.50;26.50;;;;;;10452685;28;83759;-47
2022/03/04 02:06:43;;;;;;;;;;;1.50;29.20;;;;;;10451897;28;83691;-46
2022/03/04 02:11:44;;;;;;;;;;;1.40;43.40;;;;;;10451954;28;84119;-45
2022/03/04 02:16:44;;;;;;;;;;;1.30;37.60;;;;;;10451679;28;83907;-48
2022/03/04 02:21:51;;;;;;;;;;;1.20;49.10;;;;;;10433975;28;85235;-45
2022/03/04 02:26:52;;;;;;;;;;;1.20;56.40;;;;;;10451242;28;84371;-46
2022/03/04 02:31:53;;;;;;;;;;;1.10;62.90;;;;;;10452080;28;83706;-46
2022/03/04 02:36:54;;;;;;;;;;;1.10;67.10;;;;;;10451711;28;84100;-47
2022/03/04 02:41:54;;;;;;;;;;;1.10;87.10;;;;;;10451739;28;84118;-45
2022/03/04 02:46:55;;;;;;;;;;;1.00;76.70;;;;;;10452162;28;83679;-45
2022/03/04 02:51:55;;;;;;;;;;;1.00;71.20;;;;;;10451869;28;84254;-46
2022/03/04 02:56:56;;;;;;;;;;;0.90;80.80;;;;;;10452793;28;83697;-48
2022/03/04 03:01:56;;;;;;;;;;;0.90;73.20;;;;;;10459670;28;83743;-45
2022/03/04 03:06:57;;;;;;;;;;;0.80;92.80;;;;;;10458132;28;84172;-48
2022/03/04 03:11:58;;;;;;;;;;;0.80;94.20;;;;;;10460238;28;83905;-46
2022/03/04 03:16:58;;;;;;;;;;;0.70;96.20;;;;;;10458858;28;84158;-46
2022/03/04 03:21:59;;;;;;;;;;;0.70;99.90;;;;;;10458640;28;83807;-46
2022/03/04 03:27:00;;;;;;;;;;;0.70;98.50;;;;;;10458777;28;84113;-47
2022/03/04 03:32:00;;;;;;;;;;;0.70;99.90;;;;;;10440271;28;85412;-48
2022/03/04 03:37:01;;;;;;;;;;;0.60;99.90;;;;;;10458686;28;83656;-47
2022/03/04 03:42:02;;;;;;;;;;;0.60;99.90;;;;;;10438677;28;85782;-45
2022/03/04 03:47:02;;;;;;;;;;;0.60;99.90;;;;;;10437220;28;84231;-48
2022/03/04 03:52:03;;;;;;;;;;;0.60;99.90;;;;;;10431339;28;84329;-46
2022/03/04 03:57:04;;;;;;;;;;;0.50;99.90;;;;;;10414557;28;83913;-47
2022/03/04 04:02:05;;;;;;;;;;;0.50;99.90;;;;;;10425232;28;84062;-45
2022/03/04 04:07:07;;;;;;;;;;;0.40;99.90;;;;;;10455712;28;84245;-47
2022/03/04 04:12:08;;;;;;;;;;;0.30;99.90;;;;;;10439513;27;83618;-49
2022/03/04 04:17:09;;;;;;;;;;;0.30;99.90;;;;;;10455666;27;85652;-49
2022/03/04 04:22:09;;;;;;;;;;;0.20;99.90;;;;;;10456518;28;83595;-47
2022/03/04 04:27:10;;;;;;;;;;;0.20;99.90;;;;;;10455109;28;84137;-46
2022/03/04 04:32:10;;;;;;;;;;;0.20;99.90;;;;;;10456313;28;84086;-48
2022/03/04 04:37:11;;;;;;;;;;;0.20;99.90;;;;;;10436177;28;85806;-45
2022/03/04 04:42:11;;;;;;;;;;;0.20;99.90;;;;;;10455681;28;83749;-45
2022/03/04 04:47:12;;;;;;;;;;;0.10;99.90;;;;;;10436366;28;83986;-46
2022/03/04 04:52:14;;;;;;;;;;;0.10;99.90;;;;;;10437347;28;85899;-49
2022/03/04 04:57:15;;;;;;;;;;;0.00;99.90;;;;;;10454062;28;84068;-46
2022/03/04 05:02:15;;;;;;;;;;;0.00;99.90;;;;;;10437218;28;83820;-48
2022/03/04 05:07:16;;;;;;;;;;;-0.10;99.90;;;;;;10435977;28;84229;-46
2022/03/04 05:12:16;;;;;;;;;;;-0.10;99.90;;;;;;10451378;28;83775;-47
2022/03/04 05:17:17;;;;;;;;;;;-0.10;99.90;;;;;;10448169;28;84268;-44
2022/03/04 05:22:17;;;;;;;;;;;-0.10;99.90;;;;;;10451893;27;85048;-46
2022/03/04 05:27:18;;;;;;;;;;;-0.20;99.90;;;;;;10451948;28;84486;-44
2022/03/04 05:32:18;;;;;;;;;;;-0.20;99.90;;;;;;10453454;28;84008;-46
2022/03/04 05:37:19;;;;;;;;;;;-0.20;99.90;;;;;;10452086;28;83864;-53
2022/03/04 05:42:20;;;;;;;;;;;-0.30;99.90;;;;;;10453426;28;83434;-47
2022/03/04 05:47:20;;;;;;;;;;;-0.30;99.90;;;;;;10446902;28;85074;-46
2022/03/04 05:52:21;;;;;;;;;;;-0.20;99.90;;;;;;10446647;28;84301;-45
2022/03/04 05:57:21;;;;;;;;;;;-0.20;99.90;;;;;;10450883;28;83941;-44
2022/03/04 06:02:24;;;;;;;;;;;-0.20;99.90;;;;;;10452640;28;83603;-45
2022/03/04 06:07:24;;;;;;;;;;;-0.30;99.90;;;;;;10450426;28;84186;-47
2022/03/04 06:12:25;;;;;;;;;;;-0.30;99.90;;;;;;10451436;28;84128;-46
2022/03/04 06:17:25;;;;;;;;;;;-0.30;99.90;;;;;;10432149;28;83883;-45
2022/03/04 06:22:26;;;;;;;;;;;-0.30;99.90;;;;;;10433223;28;84053;-45
2022/03/04 06:27:26;;;;;;;;;;;-0.20;99.90;;;;;;10434251;28;85144;-46
2022/03/04 06:32:27;;;;;;;;;;;-0.20;99.90;;;;;;10452206;28;84114;-44
2022/03/04 06:37:27;;;;;;;;;;;-0.20;99.90;;;;;;10442030;28;83934;-48
2022/03/04 06:42:28;;;;;;;;;;;-0.20;99.90;;;;;;10436256;28;83856;-52
2022/03/04 06:47:30;;;;;;;;;;;-0.20;99.90;;;;;;10442751;28;104681;-50
2022/03/04 06:52:31;;;;;;;;;;;-0.20;99.90;;;;;;10444016;28;83713;-51
2022/03/04 06:57:32;;;;;;;;;;;-0.20;99.90;;;;;;10497163;22;83440;-52
2022/03/04 07:02:33;;;;;;;;;;;-0.10;99.90;;;;;;10482065;27;83636;-52
2022/03/04 07:07:34;;;;;;;;;;;0.00;99.90;;;;;;10489473;27;83376;-50
2022/03/04 07:12:38;;;;;;;;;;;0.10;99.90;;;;;;10492890;27;83723;-52
2022/03/04 07:17:38;;;;;;;;;;;0.20;99.90;;;;;;10449234;27;84032;-52
2022/03/04 07:22:39;;;;;;;;;;;0.40;98.40;;;;;;10450677;28;84450;-51
2022/03/04 07:27:40;;;;;;;;;;;0.70;88.60;;;;;;10390040;28;85045;-59
2022/03/04 07:32:41;;;;;;;;;;;0.80;54.80;;;;;;10409873;28;84068;-58
2022/03/04 07:37:42;;;;;;;;;;;1.30;13.10;;;;;;10448683;28;83197;-60
2022/03/04 07:42:43;;;;;;;;;;;2.20;1.00;;;;;;10450938;27;83232;-61
2022/03/04 07:47:44;;;;;;;;;;;2.70;1.00;;;;;;10415111;28;83405;-62
2022/03/04 07:52:44;;;;;;;;;;;3.30;1.00;;;;;;10416722;28;83784;-62
2022/03/04 07:57:45;;;;;;;;;;;3.90;1.00;;;;;;10426325;28;83384;-61
2022/03/04 08:02:45;;;;;;;;;;;4.20;1.00;;;;;;10428081;28;83979;-58
2022/03/04 08:07:46;;;;;;;;;;;5.10;1.00;;;;;;10427969;28;83477;-62
2022/03/04 08:12:47;;;;;;;;;;;5.30;1.00;;;;;;10442069;28;83299;-62
2022/03/04 08:17:47;;;;;;;;;;;5.70;1.00;;;;;;10415000;28;84143;-63
2022/03/04 08:22:48;;;;;;;;;;;6.10;1.00;;;;;;10449511;28;84521;-62
2022/03/04 08:27:50;;;;;;;;;;;6.40;1.00;;;;;;10413797;28;84153;-62
2022/03/04 08:32:50;;;;;;;;;;;7.00;99.90;;;;;;10414877;28;83864;-63
2022/03/04 08:37:52;;;;;;;;;;;7.60;99.90;;;;;;10438821;28;83878;-63
2022/03/04 08:42:53;;;;;;;;;;;8.30;99.90;;;;;;10457507;28;83608;-60
2022/03/04 08:47:54;;;;;;;;;;;8.20;63.50;;;;;;10461585;27;83903;-60
2022/03/04 08:52:54;;;;;;;;;;;8.40;81.70;;;;;;10481256;27;84395;-63
2022/03/04 08:57:55;;;;;;;;;;;8.80;1.00;;;;;;10454474;27;84681;-63
2022/03/04 09:02:55;;;;;;;;;;;8.80;1.00;;;;;;10416645;28;83401;-61
2022/03/04 09:07:56;;;;;;;;;;;9.00;1.00;;;;;;10419871;28;84117;-62
2022/03/04 09:12:57;;;;;;;;;;;8.90;1.00;;;;;;10444680;28;85532;-62
2022/03/04 09:17:57;;;;;;;;;;;9.40;1.00;;;;;;10439593;28;84937;-57
2022/03/04 09:22:58;;;;;;;;;;;9.40;99.90;;;;;;10413282;28;84229;-62
2022/03/04 09:27:59;;;;;;;;;;;9.30;99.90;;;;;;10429791;28;83207;-58
2022/03/04 09:33:00;;;;;;;;;;;9.80;75.10;;;;;;10436754;28;83485;-58
2022/03/04 09:38:01;;;;;;;;;;;10.10;1.00;;;;;;10434549;28;84640;-61
2022/03/04 09:43:04;;;;;;;;;;;10.70;99.90;;;;;;10412211;28;85126;-56
2022/03/04 09:48:05;;;;;;;;;;;11.20;1.50;;;;;;10418360;28;83931;-56
2022/03/04 09:53:09;;;;;;;;;;;11.40;1.00;;;;;;10411649;28;83471;-57
2022/03/04 09:58:10;;;;;;;;;;;11.50;99.90;;;;;;10432232;28;85587;-56
2022/03/04 10:03:19;;;;;;;;;;;11.60;1.00;;;;;;10434918;28;83892;-58
2022/03/04 10:08:19;;;;;;;;;;;11.20;1.00;;;;;;10417674;28;83385;-54
2022/03/04 10:13:38;;;;;;;;;;;11.40;1.00;;;;;;10422078;28;84141;-57
2022/03/04 10:18:39;;;;;;;;;;;11.80;1.00;;;;;;10432432;28;85111;-60
2022/03/04 10:23:40;;;;;;;;;;;11.50;1.00;;;;;;10451821;28;85625;-61
2022/03/04 10:28:45;;;;;;;;;;;12.00;1.00;;;;;;10440840;28;83153;-60
2022/03/04 10:33:46;;;;;;;;;;;12.20;99.90;;;;;;10410771;28;84036;-61
2022/03/04 10:39:05;;;;;;;;;;;12.30;99.90;;;;;;10420738;28;84278;-60
2022/03/04 10:44:24;;;;;;;;;;;13.00;99.90;;;;;;10452130;28;83351;-61
2022/03/04 10:49:25;;;;;;;;;;;13.00;99.90;;;;;;10434893;28;83232;-62
2022/03/04 10:54:27;;;;;;;;;;;13.60;1.20;;;;;;10409690;28;83391;-61
2022/03/04 10:59:28;;;;;;;;;;;13.50;99.90;;;;;;10425528;28;84148;-59
2022/03/04 11:04:30;;;;;;;;;;;14.10;1.00;;;;;;10433251;28;84225;-61
2022/03/04 11:09:30;;;;;;;;;;;14.30;1.00;;;;;;10409013;28;83241;-60
2022/03/04 11:14:31;;;;;;;;;;;14.00;1.00;;;;;;10426946;28;83834;-62
2022/03/04 11:19:33;;;;;;;;;;;14.00;1.00;;;;;;10454414;27;84255;-62
2022/03/04 11:24:36;;;;;;;;;;;14.20;1.00;;;;;;10439286;28;83946;-64
2022/03/04 11:29:37;;;;;;;;;;;14.30;1.00;;;;;;10415802;28;84323;-62
2022/03/04 11:34:41;;;;;;;;;;;14.10;1.00;;;;;;10416286;28;84399;-61
2022/03/04 11:40:01;;;;;;;;;;;13.50;1.00;;;;;;10457079;28;84064;-57
2022/03/04 11:45:02;;;;;;;;;;;13.80;99.90;;;;;;10435850;28;83475;-57
2022/03/04 11:50:22;;;;;;;;;;;14.00;1.00;;;;;;10397247;28;85318;-56
2022/03/04 11:55:26;;;;;;;;;;;14.60;1.00;;;;;;10439377;28;84128;-59
2022/03/04 12:00:28;;;;;;;;;;;14.70;1.00;;;;;;10438315;28;83416;-57
2022/03/04 12:05:32;;;;;;;;;;;14.70;99.90;;;;;;10431884;28;83896;-57
2022/03/04 12:10:40;;;;;;;;;;;14.70;1.00;;;;;;10417128;28;85040;-58
2022/03/04 12:15:42;;;;;;;;;;;14.40;1.00;;;;;;10422350;28;84153;-57
2022/03/04 12:20:43;;;;;;;;;;;14.50;38.20;;;;;;10456049;28;83233;-62
2022/03/04 12:25:56;;;;;;;;;;;14.80;99.90;;;;;;10439458;28;83480;-60
2022/03/04 12:31:00;;;;;;;;;;;14.70;1.00;;;;;;10443241;27;83602;-63
2022/03/04 12:36:02;;;;;;;;;;;14.70;1.00;;;;;;10425171;27;84469;-57
2022/03/04 12:41:03;;;;;;;;;;;14.60;1.00;;;;;;10480702;27;84021;-58
2022/03/04 12:46:04;;;;;;;;;;;15.00;1.00;;;;;;10439314;27;85035;-57
2022/03/04 12:51:24;;;;;;;;;;;14.90;1.00;;;;;;10464490;27;85700;-55
2022/03/04 12:56:25;;;;;;;;;;;14.90;1.00;;;;;;10439061;28;85892;-54
2022/03/04 13:01:26;;;;;;;;;;;14.90;1.00;;;;;;10451774;28;83420;-61
2022/03/04 13:06:27;;;;;;;;;;;14.60;1.00;;;;;;10456713;27;83506;-55
2022/03/04 13:11:31;;;;;;;;;;;14.90;1.00;;;;;;10451272;28;85865;-64
2022/03/04 13:16:51;;;;;;;;;;;14.90;1.00;;;;;;10449852;28;84492;-57
2022/03/04 13:22:04;;;;;;;;;;;14.60;1.00;;;;;;10451536;28;83969;-54
2022/03/04 13:27:10;;;;;;;;;;;14.30;1.00;;;;;;10439537;27;83414;-56
2022/03/04 13:32:18;;;;;;;;;;;14.20;1.00;;;;;;10456412;27;83692;-53
2022/03/04 13:37:19;;;;;;;;;;;14.10;1.00;;;;;;10441406;27;84267;-53
2022/03/04 13:42:21;;;;;;;;;;;14.60;1.00;;;;;;10479019;22;85282;-48
2022/03/04 13:47:36;;;;;;;;;;;14.30;1.00;;;;;;10502987;27;85180;-49
2022/03/04 13:52:49;;;;;;;;;;;14.30;1.00;;;;;;10496114;27;83853;-48
2022/03/04 13:57:49;;;;;;;;;;;14.40;1.00;;;;;;10487185;27;84090;-47
2022/03/04 14:02:50;;;;;;;;;;;14.20;1.00;;;;;;10476883;27;85172;-50
2022/03/04 14:07:51;;;;;;;;;;;13.90;1.00;;;;;;10496836;27;84225;-46
2022/03/04 14:12:51;;;;;;;;;;;12.60;1.00;;;;;;10509769;27;84040;-49
2022/03/04 14:17:56;;;;;;;;;;;11.70;97.20;;;;;;10495157;27;83788;-49
2022/03/04 14:22:56;;;;;;;;;;;11.10;99.90;;;;;;10493741;27;84242;-47
2022/03/04 14:27:57;;;;;;;;;;;10.70;1.00;;;;;;10492234;27;83783;-47
2022/03/04 14:32:59;;;;;;;;;;;10.50;1.00;;;;;;10485032;27;84811;-49
2022/03/04 14:38:00;;;;;;;;;;;10.10;1.00;;;;;;10480037;27;83923;-55
2022/03/04 14:43:01;;;;;;;;;;;10.00;99.90;;;;;;10463844;27;84021;-53
2022/03/04 14:48:02;;;;;;;;;;;10.10;1.00;;;;;;10489768;27;84171;-52
2022/03/04 14:53:04;;;;;;;;;;;10.50;1.00;;;;;;10488319;27;84035;-49
2022/03/04 14:58:05;;;;;;;;;;;10.80;1.00;;;;;;10471142;27;86146;-53
2022/03/04 15:03:06;;;;;;;;;;;11.00;1.00;;;;;;10487634;27;83582;-47
2022/03/04 15:08:06;;;;;;;;;;;11.10;1.00;;;;;;10470522;27;85600;-46
2022/03/04 15:13:07;;;;;;;;;;;11.60;1.00;;;;;;10471796;27;84520;-48
2022/03/04 15:18:07;;;;;;;;;;;11.20;1.00;;;;;;10489081;27;84232;-47
2022/03/04 15:23:08;;;;;;;;;;;10.60;1.00;;;;;;10489633;27;83735;-48
2022/03/04 15:28:08;;;;;;;;;;;9.90;1.00;;;;;;10488440;27;83811;-47
2022/03/04 15:33:09;;;;;;;;;;;9.60;1.00;;;;;;10489507;27;84015;-46
2022/03/04 15:38:10;;;;;;;;;;;9.20;1.00;;;;;;10488951;27;83882;-46
2022/03/04 15:43:10;;;;;;;;;;;8.80;99.90;;;;;;10489121;27;83995;-46
2022/03/04 15:48:11;;;;;;;;;;;8.50;1.00;;;;;;10470074;27;84453;-47
2022/03/04 15:53:11;;;;;;;;;;;8.60;1.00;;;;;;10488605;27;84041;-53
2022/03/04 15:58:12;;;;;;;;;;;8.50;1.00;;;;;;10470458;27;85279;-50
2022/03/04 16:03:12;;;;;;;;;;;8.30;97.00;;;;;;10489070;27;84124;-50
2022/03/04 16:08:13;;;;;;;;;;;8.20;99.90;;;;;;10494718;27;83881;-47
2022/03/04 16:13:19;;;;;;;;;;;8.20;1.00;;;;;;10496379;27;84650;-48
2022/03/04 16:18:19;;;;;;;;;;;8.10;1.00;;;;;;10492007;27;85835;-48
2022/03/04 16:23:20;;;;;;;;;;;8.00;1.00;;;;;;10496004;27;84131;-48
2022/03/04 16:28:22;;;;;;;;;;;7.90;1.00;;;;;;10495086;27;83727;-46
2022/03/04 16:33:23;;;;;;;;;;;7.70;1.00;;;;;;10490824;27;84194;-47
2022/03/04 16:38:23;;;;;;;;;;;7.60;99.00;;;;;;10474516;27;84122;-46
2022/03/04 16:43:24;;;;;;;;;;;7.50;99.90;;;;;;10486730;27;83967;-51
2022/03/04 16:48:25;;;;;;;;;;;7.40;99.90;;;;;;10489092;27;84226;-51
2022/03/04 16:53:26;;;;;;;;;;;7.20;99.90;;;;;;10499511;27;83346;-44
2022/03/04 16:58:26;;;;;;;;;;;7.10;99.90;;;;;;10498295;27;83977;-47
2022/03/04 17:03:27;;;;;;;;;;;7.00;99.90;;;;;;10499150;27;84032;-54
2022/03/04 17:08:28;;;;;;;;;;;6.80;99.90;;;;;;10498937;27;84248;-48
2022/03/04 17:13:28;;;;;;;;;;;6.60;1.00;;;;;;10488851;27;84001;-54
2022/03/04 17:18:30;;;;;;;;;;;6.50;1.00;;;;;;10491913;27;83379;-54
2022/03/04 17:23:31;;;;;;;;;;;6.20;1.00;;;;;;10499606;27;84345;-53
2022/03/04 17:28:33;;;;;;;;;;;6.10;1.00;;;;;;10487616;27;83380;-53
2022/03/04 17:33:33;;;;;;;;;;;5.80;1.00;;;;;;10497719;27;83437;-52
2022/03/04 17:38:36;;;;;;;;;;;5.70;1.00;;;;;;10478705;27;83321;-50
2022/03/04 17:43:36;;;;;;;;;;;5.60;1.00;;;;;;10495627;27;83996;-51
2022/03/04 17:48:37;;;;;;;;;;;5.40;1.00;;;;;;10494647;27;85013;-51
2022/03/04 17:53:37;;;;;;;;;;;5.30;1.00;;;;;;10477826;27;83490;-53
2022/03/04 17:58:38;;;;;;;;;;;5.10;1.00;;;;;;10496006;27;83243;-52
2022/03/04 18:03:39;;;;;;;;;;;5.10;1.00;;;;;;10497083;27;84107;-52
2022/03/04 18:08:39;;;;;;;;;;;5.00;1.00;;;;;;10476267;27;85208;-53
2022/03/04 18:13:40;;;;;;;;;;;4.90;1.00;;;;;;10495488;27;84254;-53
2022/03/04 18:18:40;;;;;;;;;;;4.60;1.00;;;;;;10476004;27;86108;-53
2022/03/04 18:23:42;;;;;;;;;;;4.60;1.00;;;;;;10495831;27;83959;-55
2022/03/04 18:28:42;;;;;;;;;;;4.50;1.00;;;;;;10499559;27;83309;-51
2022/03/04 18:33:43;;;;;;;;;;;4.30;1.00;;;;;;10493184;27;83324;-51
2022/03/04 18:44:02;;;;;;;;;;;4.10;1.00;;;;;;10471902;27;84469;-49
2022/03/04 18:49:03;;;;;;;;;;;4.00;1.00;;;;;;10480964;27;84278;-50
2022/03/04 18:54:03;;;;;;;;;;;3.90;1.00;;;;;;10487933;27;84204;-54
2022/03/04 18:59:05;;;;;;;;;;;3.90;1.00;;;;;;10484517;27;84168;-51
2022/03/04 19:04:06;;;;;;;;;;;3.70;1.00;;;;;;10483398;27;84348;-50
2022/03/04 19:09:07;;;;;;;;;;;3.70;1.00;;;;;;10467725;27;84844;-54
2022/03/04 19:14:10;;;;;;;;;;;3.60;1.00;;;;;;10499011;27;84085;-55
2022/03/04 19:19:16;;;;;;;;;;;3.60;1.00;;;;;;10467864;27;86232;-55
2022/03/04 19:24:17;;;;;;;;;;;3.50;1.00;;;;;;10476629;27;83331;-54
2022/03/04 19:29:17;;;;;;;;;;;3.40;1.00;;;;;;10460609;27;84115;-49
2022/03/04 19:34:18;;;;;;;;;;;3.40;1.00;;;;;;10464900;27;84267;-50
2022/03/04 19:39:18;;;;;;;;;;;3.30;1.00;;;;;;10451586;27;84534;-49
2022/03/04 19:44:28;;;;;;;;;;;3.30;1.00;;;;;;10547733;22;84984;-52
2022/03/04 19:49:29;;;;;;;;;;;3.30;1.00;;;;;;10535994;27;83844;-59
2022/03/04 19:54:30;;;;;;;;;;;3.20;1.00;;;;;;10543504;27;85619;-53
2022/03/04 19:59:30;;;;;;;;;;;3.20;1.00;;;;;;10523406;27;84100;-49
2022/03/04 20:04:31;;;;;;;;;;;3.00;1.00;;;;;;10524451;27;83899;-49
2022/03/04 20:09:32;;;;;;;;;;;2.90;1.00;;;;;;10538798;27;84095;-50
2022/03/04 20:14:32;;;;;;;;;;;2.90;1.00;;;;;;10536408;27;83756;-48
2022/03/04 20:19:33;;;;;;;;;;;2.80;1.00;;;;;;10522533;27;85152;-50
2022/03/04 20:24:36;;;;;;;;;;;2.80;1.00;;;;;;10542296;27;83956;-49
2022/03/04 20:29:37;;;;;;;;;;;2.70;1.00;;;;;;10540858;27;83954;-49
2022/03/04 20:34:37;;;;;;;;;;;2.60;1.00;;;;;;10537977;27;84428;-50
2022/03/04 20:39:38;;;;;;;;;;;2.60;1.00;;;;;;10486012;27;84221;-51
2022/03/04 20:44:41;;;;;;;;;;;2.60;1.00;;;;;;10533896;27;84167;-49
2022/03/04 20:49:41;;;;;;;;;;;2.50;1.00;;;;;;10532052;27;84371;-53
2022/03/04 20:54:42;;;;;;;;;;;2.40;1.00;;;;;;10539016;27;83393;-52
2022/03/04 20:59:43;;;;;;;;;;;2.30;1.00;;;;;;10536228;27;83520;-52
2022/03/04 21:04:43;;;;;;;;;;;2.30;1.00;;;;;;10541119;27;84026;-50
2022/03/04 21:09:45;;;;;;;;;;;2.20;1.00;;;;;;10526303;27;83845;-50
2022/03/04 21:14:45;;;;;;;;;;;2.10;1.00;;;;;;10536369;27;84199;-50
2022/03/04 21:19:46;;;;;;;;;;;2.10;1.00;;;;;;10537547;27;84113;-53
2022/03/04 21:24:47;;;;;;;;;;;2.00;1.00;;;;;;10539666;27;84081;-52
2022/03/04 21:29:48;;;;;;;;;;;2.00;1.00;;;;;;10520618;27;84414;-48
2022/03/04 21:34:48;;;;;;;;;;;2.00;1.00;;;;;;10539559;27;83549;-50
2022/03/04 21:39:50;;;;;;;;;;;1.90;1.00;;;;;;10537950;27;85127;-50
2022/03/04 21:44:50;;;;;;;;;;;1.90;1.00;;;;;;10538267;27;85652;-48
2022/03/04 21:49:51;;;;;;;;;;;1.80;1.00;;;;;;10536667;27;84024;-47
2022/03/04 21:54:51;;;;;;;;;;;1.80;1.00;;;;;;10538334;27;84669;-48
2022/03/04 21:59:52;;;;;;;;;;;1.70;1.00;;;;;;10537092;27;84001;-49
2022/03/04 22:04:52;;;;;;;;;;;1.70;1.00;;;;;;10518348;27;86144;-50
2022/03/04 22:09:53;;;;;;;;;;;1.70;1.00;;;;;;10540247;27;83858;-51
2022/03/04 22:14:54;;;;;;;;;;;1.70;1.00;;;;;;10539794;27;84120;-47
2022/03/04 22:19:54;;;;;;;;;;;1.60;1.00;;;;;;10537864;27;83746;-49
2022/03/04 22:24:55;;;;;;;;;;;1.60;1.00;;;;;;10537612;27;83766;-48
2022/03/04 22:29:57;;;;;;;;;;;1.60;1.00;;;;;;10516982;27;83710;-49
2022/03/04 22:34:57;;;;;;;;;;;1.50;1.00;;;;;;10518272;27;84184;-48
2022/03/04 22:39:58;;;;;;;;;;;1.50;1.00;;;;;;10535518;27;83916;-47
2022/03/04 22:44:58;;;;;;;;;;;1.50;1.00;;;;;;10536504;27;83604;-51
2022/03/04 22:49:59;;;;;;;;;;;1.50;1.00;;;;;;10517560;27;86304;-47
2022/03/04 22:54:59;;;;;;;;;;;1.50;1.00;;;;;;10536872;27;83928;-49
2022/03/04 23:00:00;;;;;;;;;;;1.40;1.00;;;;;;10535502;27;84155;-49
2022/03/04 23:15:39;;;;;;;;;;;1.40;1.00;;;;;;10539337;27;83187;-47
2022/03/04 23:20:41;;;;;;;;;;;1.30;1.00;;;;;;10524853;27;83937;-50
2022/03/04 23:25:41;;;;;;;;;;;1.20;1.00;;;;;;10541108;27;83960;-49
2022/03/04 23:30:42;;;;;;;;;;;1.20;1.00;;;;;;10541322;27;84029;-49
2022/03/04 23:35:43;;;;;;;;;;;1.20;1.00;;;;;;10542167;27;83871;-47
2022/03/04 23:40:43;;;;;;;;;;;1.10;1.00;;;;;;10541811;27;84376;-48
2022/03/04 23:45:46;;;;;;;;;;;1.20;1.00;;;;;;10541922;27;84106;-48
2022/03/04 23:50:54;;;;;;;;;;;1.10;1.00;;;;;;10522792;27;85336;-49
2022/03/04 23:55:56;;;;;;;;;;;1.10;1.00;;;;;;10543022;27;84466;-47
